Time;durP1;ratioP1;P1;durP2;ratioP2;P2;SDS_P1;SDS_P2;PMS_P1;PMS_P2;Temp;Humidity;BMP_temperature;BMP_pressure;BME280_temperature;BME280_humidity;BME280_pressure;Samples;Min_cycle;Max_cycle;Signal;HPM_P1;HPM_P2
2022/08/16 00:00:44;;;;;;;9.90;9.60;;;18.70;99.90;;;;;;5023065;28;20228;-79
2022/08/16 00:03:12;;;;;;;9.88;9.57;;;18.70;99.90;;;;;;5022332;28;20212;-80
2022/08/16 00:05:40;;;;;;;10.20;9.90;;;18.60;99.90;;;;;;5020228;28;20236;-81
2022/08/16 00:08:07;;;;;;;9.90;9.60;;;18.50;99.90;;;;;;5020852;28;20375;-77
2022/08/16 00:10:35;;;;;;;10.02;9.73;;;18.40;99.90;;;;;;5020199;28;20234;-78
2022/08/16 00:13:06;;;;;;;9.88;9.57;;;18.40;99.90;;;;;;5020930;28;20231;-78
2022/08/16 00:15:40;;;;;;;9.55;9.25;;;18.30;99.90;;;;;;5020493;28;20240;-78
2022/08/16 00:18:10;;;;;;;9.90;9.60;;;18.20;99.90;;;;;;5021247;28;20311;-78
2022/08/16 00:20:40;;;;;;;9.90;9.60;;;18.20;99.90;;;;;;5021166;28;20228;-80
2022/08/16 00:23:08;;;;;;;9.73;9.43;;;18.10;99.90;;;;;;5020645;28;20287;-77
2022/08/16 00:25:37;;;;;;;9.90;9.60;;;18.00;99.90;;;;;;5021342;28;20288;-77
2022/08/16 00:28:06;;;;;;;10.20;9.90;;;18.00;99.90;;;;;;5020636;28;20228;-77
2022/08/16 00:30:35;;;;;;;10.13;9.82;;;17.90;99.90;;;;;;5020632;28;20234;-78
2022/08/16 00:33:03;;;;;;;10.00;9.70;;;17.80;99.90;;;;;;5019296;28;20241;-78
2022/08/16 00:35:35;;;;;;;9.95;9.65;;;17.70;99.90;;;;;;5018783;28;20236;-77
2022/08/16 00:38:04;;;;;;;9.90;9.60;;;17.70;99.90;;;;;;5018934;28;20676;-78
2022/08/16 00:40:36;;;;;;;10.10;9.80;;;17.60;99.90;;;;;;5018738;28;20236;-77
2022/08/16 00:43:06;;;;;;;10.18;9.88;;;17.60;99.90;;;;;;5018107;28;20315;-78
2022/08/16 00:45:42;;;;;;;9.85;9.55;;;17.50;99.90;;;;;;5019038;28;20236;-77
2022/08/16 00:48:14;;;;;;;9.98;9.68;;;17.50;99.90;;;;;;5018816;28;20227;-77
2022/08/16 00:50:45;;;;;;;10.20;9.90;;;17.50;99.90;;;;;;5018961;28;20224;-77
2022/08/16 00:53:17;;;;;;;10.00;9.70;;;17.40;99.90;;;;;;5018558;28;20236;-77
2022/08/16 00:55:49;;;;;;;9.88;9.57;;;17.40;99.90;;;;;;5018252;28;20232;-77
2022/08/16 00:58:23;;;;;;;9.88;9.57;;;17.30;99.90;;;;;;5019120;28;20248;-77
2022/08/16 01:00:52;;;;;;;9.70;9.40;;;17.20;99.90;;;;;;5018420;28;20239;-77
2022/08/16 01:03:26;;;;;;;10.00;9.70;;;17.20;99.90;;;;;;5018714;28;20232;-77
2022/08/16 01:05:55;;;;;;;9.77;9.48;;;17.20;99.90;;;;;;5018625;28;20236;-78
2022/08/16 01:08:24;;;;;;;9.85;9.55;;;17.10;99.90;;;;;;5019063;28;20236;-77
2022/08/16 01:10:54;;;;;;;9.70;9.40;;;17.10;99.90;;;;;;5019197;28;20234;-80
2022/08/16 01:13:25;;;;;;;9.70;9.40;;;17.10;99.90;;;;;;5018454;28;20237;-78
2022/08/16 01:15:59;;;;;;;9.60;9.30;;;17.10;99.90;;;;;;5018595;28;20284;-78
2022/08/16 01:18:34;;;;;;;9.50;9.20;;;17.10;99.90;;;;;;5018682;28;20255;-78
2022/08/16 01:21:16;;;;;;;9.80;9.50;;;17.10;99.90;;;;;;5018508;28;20235;-77
2022/08/16 01:24:16;;;;;;;9.90;9.60;;;17.00;99.90;;;;;;5018629;28;20236;-77
2022/08/16 01:26:46;;;;;;;9.80;9.50;;;17.00;99.90;;;;;;5018157;28;20232;-77
2022/08/16 01:29:24;;;;;;;9.90;9.60;;;17.00;99.90;;;;;;5018376;28;20234;-77
2022/08/16 01:31:51;;;;;;;9.80;9.50;;;17.00;99.90;;;;;;5018075;28;20537;-77
2022/08/16 01:34:19;;;;;;;9.70;9.40;;;16.90;99.90;;;;;;5017955;28;20228;-78
2022/08/16 01:36:47;;;;;;;9.77;9.48;;;16.80;99.90;;;;;;5018366;28;20256;-78
2022/08/16 01:39:17;;;;;;;9.70;9.40;;;16.80;99.90;;;;;;5018789;28;20292;-78
2022/08/16 01:41:46;;;;;;;9.85;9.55;;;16.70;99.90;;;;;;5017883;28;20243;-78
2022/08/16 01:44:14;;;;;;;9.80;9.50;;;16.70;99.90;;;;;;5018107;28;20243;-78
2022/08/16 01:46:45;;;;;;;9.70;9.40;;;16.70;99.90;;;;;;5017522;28;20240;-78
2022/08/16 01:49:17;;;;;;;9.60;9.30;;;16.60;99.90;;;;;;5018895;28;20264;-78
2022/08/16 01:51:48;;;;;;;9.77;9.48;;;16.60;99.90;;;;;;5017627;28;20243;-78
2022/08/16 01:54:17;;;;;;;9.68;9.38;;;16.60;99.90;;;;;;5018336;28;20263;-78
2022/08/16 01:56:45;;;;;;;9.60;9.30;;;16.60;99.90;;;;;;5018004;28;20243;-78
2022/08/16 01:59:14;;;;;;;9.90;9.60;;;16.60;99.90;;;;;;5018306;28;20291;-77
2022/08/16 02:01:42;;;;;;;10.00;9.70;;;16.50;99.90;;;;;;5018133;28;20323;-78
2022/08/16 02:04:10;;;;;;;9.85;9.55;;;16.50;99.90;;;;;;5017808;28;20396;-78
2022/08/16 02:06:39;;;;;;;9.98;9.68;;;16.50;99.90;;;;;;5017167;28;20232;-78
2022/08/16 02:09:09;;;;;;;9.82;9.52;;;16.50;99.90;;;;;;5018068;28;20240;-78
2022/08/16 02:11:42;;;;;;;9.70;9.40;;;16.50;99.90;;;;;;5018037;28;20235;-78
2022/08/16 02:14:09;;;;;;;9.80;9.50;;;16.50;99.90;;;;;;5018249;28;20320;-78
2022/08/16 02:16:38;;;;;;;9.45;9.15;;;16.50;99.90;;;;;;5017352;28;20232;-78
2022/08/16 02:19:06;;;;;;;9.48;9.18;;;16.50;99.90;;;;;;5018082;28;20375;-78
2022/08/16 02:21:33;;;;;;;9.60;9.30;;;16.50;99.90;;;;;;5016825;28;20248;-78
2022/08/16 02:24:01;;;;;;;9.88;9.57;;;16.50;99.90;;;;;;5017725;28;20238;-80
2022/08/16 02:26:29;;;;;;;9.55;9.25;;;16.40;99.90;;;;;;5018391;28;20238;-79
2022/08/16 02:28:59;;;;;;;9.70;9.40;;;16.40;99.90;;;;;;5018745;28;20326;-79
2022/08/16 02:31:26;;;;;;;9.50;9.20;;;16.30;99.90;;;;;;5018331;28;20244;-78
2022/08/16 02:33:55;;;;;;;9.60;9.30;;;16.30;99.90;;;;;;5018559;28;20319;-79
2022/08/16 02:36:23;;;;;;;9.70;9.40;;;16.30;99.90;;;;;;5017829;28;20236;-79
2022/08/16 02:38:50;;;;;;;9.75;9.45;;;16.30;99.90;;;;;;5018400;28;20296;-78
2022/08/16 02:41:18;;;;;;;9.73;9.43;;;16.30;99.90;;;;;;5018062;28;20280;-79
2022/08/16 02:43:46;;;;;;;9.60;9.30;;;16.30;99.90;;;;;;5019600;28;20255;-78
2022/08/16 02:46:15;;;;;;;9.57;9.27;;;16.30;99.90;;;;;;5021171;28;20939;-79
2022/08/16 02:48:42;;;;;;;9.90;9.60;;;16.20;99.90;;;;;;5021937;28;20237;-79
2022/08/16 02:51:11;;;;;;;9.73;9.43;;;16.20;99.90;;;;;;5021454;28;20326;-79
2022/08/16 02:53:44;;;;;;;9.60;9.30;;;16.20;99.90;;;;;;5020965;28;20230;-78
2022/08/16 02:56:12;;;;;;;9.90;9.60;;;16.20;99.90;;;;;;5020781;28;20243;-79
2022/08/16 02:58:40;;;;;;;9.70;9.40;;;16.10;99.90;;;;;;5021029;28;20236;-78
2022/08/16 03:01:08;;;;;;;10.10;9.80;;;16.10;99.90;;;;;;5020043;28;20232;-77
2022/08/16 03:03:37;;;;;;;10.00;9.70;;;16.10;99.90;;;;;;5020521;28;20242;-77
2022/08/16 03:06:05;;;;;;;9.95;9.65;;;16.00;99.90;;;;;;5019924;28;20256;-77
2022/08/16 03:08:33;;;;;;;9.98;9.68;;;16.00;99.90;;;;;;5020361;28;20239;-77
2022/08/16 03:11:00;;;;;;;9.85;9.55;;;16.00;99.90;;;;;;5019897;28;20242;-78
2022/08/16 03:13:29;;;;;;;9.88;9.57;;;16.00;99.90;;;;;;5020036;28;20239;-78
2022/08/16 03:15:57;;;;;;;9.70;9.40;;;16.00;99.90;;;;;;5019870;28;20239;-78
2022/08/16 03:18:24;;;;;;;9.55;9.25;;;16.00;99.90;;;;;;5020242;28;20319;-77
2022/08/16 03:20:55;;;;;;;9.60;9.30;;;16.00;99.90;;;;;;5020747;28;20239;-78
2022/08/16 03:23:22;;;;;;;9.60;9.30;;;15.90;99.90;;;;;;5020145;28;20283;-77
2022/08/16 03:25:50;;;;;;;9.60;9.30;;;15.90;99.90;;;;;;5019806;28;20228;-78
2022/08/16 03:28:19;;;;;;;9.70;9.40;;;15.90;99.90;;;;;;5020679;28;20319;-78
2022/08/16 03:30:47;;;;;;;9.70;9.40;;;15.90;99.90;;;;;;5020206;28;20255;-77
2022/08/16 03:33:15;;;;;;;9.80;9.50;;;15.90;99.90;;;;;;5019787;28;20451;-78
2022/08/16 03:35:43;;;;;;;9.65;9.35;;;15.90;99.90;;;;;;5019659;28;20530;-77
2022/08/16 03:38:16;;;;;;;9.98;9.68;;;15.90;99.90;;;;;;5020673;28;20239;-77
2022/08/16 03:40:44;;;;;;;9.85;9.55;;;15.90;99.90;;;;;;5020008;28;20269;-78
2022/08/16 03:43:13;;;;;;;10.18;9.88;;;15.80;99.90;;;;;;5019838;28;20234;-77
2022/08/16 03:45:41;;;;;;;10.93;10.60;;;15.80;99.90;;;;;;5019344;28;20306;-77
2022/08/16 03:48:10;;;;;;;10.93;10.63;;;15.80;99.90;;;;;;5020006;28;20236;-78
2022/08/16 03:50:38;;;;;;;10.63;10.32;;;15.80;99.90;;;;;;5020041;28;20240;-77
2022/08/16 03:53:06;;;;;;;10.60;10.30;;;15.80;99.90;;;;;;5020026;28;20232;-78
2022/08/16 03:55:35;;;;;;;10.75;10.45;;;15.80;99.90;;;;;;5022138;28;20231;-77
2022/08/16 03:58:03;;;;;;;10.57;10.27;;;15.70;99.90;;;;;;5026148;28;20251;-77
2022/08/16 04:00:31;;;;;;;10.73;10.43;;;15.70;99.90;;;;;;5025777;28;20236;-77
2022/08/16 04:03:05;;;;;;;10.75;10.45;;;15.70;99.90;;;;;;5022404;28;20238;-78
2022/08/16 04:05:35;;;;;;;11.18;10.77;;;15.80;99.90;;;;;;5020501;28;20243;-78
2022/08/16 04:08:02;;;;;;;10.80;10.50;;;15.70;99.90;;;;;;5020377;28;20232;-78
2022/08/16 04:10:30;;;;;;;10.82;10.48;;;15.70;99.90;;;;;;5019813;28;20240;-78
2022/08/16 04:13:00;;;;;;;10.60;10.30;;;15.70;99.90;;;;;;5019449;28;20383;-80
2022/08/16 04:15:28;;;;;;;10.65;10.35;;;15.70;99.90;;;;;;5019220;28;20240;-77
2022/08/16 04:17:56;;;;;;;10.68;10.38;;;15.70;99.90;;;;;;5019740;28;20233;-78
2022/08/16 04:20:25;;;;;;;10.60;10.30;;;15.60;99.90;;;;;;5019831;28;20239;-78
2022/08/16 04:22:53;;;;;;;10.60;10.30;;;15.60;99.90;;;;;;5019208;28;20373;-78
2022/08/16 04:25:21;;;;;;;10.52;10.23;;;15.60;99.90;;;;;;5018911;28;20240;-78
2022/08/16 04:27:48;;;;;;;10.50;10.20;;;15.60;99.90;;;;;;5019578;28;20243;-77
2022/08/16 04:30:21;;;;;;;10.20;9.90;;;15.60;99.90;;;;;;5019731;28;20239;-77
2022/08/16 04:32:49;;;;;;;10.50;10.20;;;15.60;99.90;;;;;;5019016;28;20233;-78
2022/08/16 04:35:20;;;;;;;10.40;10.10;;;15.70;99.90;;;;;;5018469;28;20299;-78
2022/08/16 04:37:50;;;;;;;10.45;10.15;;;15.60;99.90;;;;;;5019137;28;20269;-78
2022/08/16 04:40:19;;;;;;;10.48;10.18;;;15.60;99.90;;;;;;5019477;28;20236;-78
2022/08/16 04:42:47;;;;;;;10.40;10.10;;;15.60;99.90;;;;;;5019637;28;20224;-78
2022/08/16 04:45:19;;;;;;;10.60;10.30;;;15.60;99.90;;;;;;5022392;28;20287;-79
2022/08/16 04:47:46;;;;;;;10.20;9.90;;;15.60;99.90;;;;;;5022447;28;20264;-78
2022/08/16 04:50:16;;;;;;;10.30;10.00;;;15.60;99.90;;;;;;5023249;28;20235;-79
2022/08/16 04:52:46;;;;;;;10.68;10.38;;;15.70;99.90;;;;;;5022689;28;20283;-81
2022/08/16 04:55:23;;;;;;;10.52;10.23;;;15.70;99.90;;;;;;5021939;28;20234;-80
2022/08/16 04:57:53;;;;;;;10.40;10.10;;;15.70;99.90;;;;;;5022076;28;20319;-79
2022/08/16 05:00:32;;;;;;;10.57;10.27;;;15.70;99.90;;;;;;5022357;28;20225;-79
2022/08/16 05:03:04;;;;;;;10.70;10.40;;;15.70;99.90;;;;;;5024544;28;20232;-81
2022/08/16 05:05:35;;;;;;;10.80;10.50;;;15.70;99.90;;;;;;5023615;28;20240;-79
2022/08/16 05:08:03;;;;;;;10.30;10.00;;;15.70;99.90;;;;;;5023167;28;20307;-79
2022/08/16 05:10:36;;;;;;;10.50;10.20;;;15.80;99.90;;;;;;5023065;28;20248;-79
2022/08/16 05:13:06;;;;;;;10.38;10.07;;;15.90;99.90;;;;;;5026216;28;20224;-81
2022/08/16 05:15:44;;;;;;;10.40;10.10;;;15.90;99.90;;;;;;5024357;28;20248;-79
2022/08/16 05:18:14;;;;;;;10.30;10.00;;;16.00;99.90;;;;;;5025876;28;20231;-80
2022/08/16 05:20:44;;;;;;;10.38;10.07;;;16.10;99.90;;;;;;5032928;28;20230;-80
2022/08/16 05:23:12;;;;;;;10.27;9.98;;;16.20;99.90;;;;;;5037448;28;20298;-80
2022/08/16 05:25:40;;;;;;;10.10;9.80;;;16.20;99.90;;;;;;5034680;28;20212;-79
2022/08/16 05:28:10;;;;;;;10.18;9.88;;;16.30;99.90;;;;;;5036193;28;20236;-79
2022/08/16 05:30:51;;;;;;;10.18;9.88;;;16.40;99.90;;;;;;5029051;28;20260;-80
2022/08/16 05:33:20;;;;;;;10.50;10.20;;;16.50;99.90;;;;;;5026790;28;20228;-79
2022/08/16 05:35:48;;;;;;;10.32;10.02;;;16.50;99.90;;;;;;5026651;28;20299;-80
2022/08/16 05:38:17;;;;;;;10.27;9.98;;;16.60;99.90;;;;;;5026947;28;20315;-79
2022/08/16 05:40:48;;;;;;;10.18;9.88;;;16.70;99.90;;;;;;5026114;28;20240;-79
2022/08/16 05:43:16;;;;;;;10.48;10.18;;;16.80;99.90;;;;;;5025637;28;20231;-79
2022/08/16 05:45:49;;;;;;;10.15;9.85;;;16.90;99.90;;;;;;5024348;28;20244;-79
2022/08/16 05:48:17;;;;;;;10.20;9.90;;;17.00;99.90;;;;;;5025055;28;20239;-80
2022/08/16 05:50:45;;;;;;;10.15;9.85;;;17.10;99.90;;;;;;5027011;28;20224;-79
2022/08/16 05:53:15;;;;;;;10.48;10.18;;;17.20;99.90;;;;;;5025095;28;20284;-80
2022/08/16 05:55:44;;;;;;;10.60;10.30;;;17.40;99.90;;;;;;5025092;28;20235;-80
2022/08/16 05:58:13;;;;;;;10.50;10.20;;;17.50;99.90;;;;;;5023330;28;20240;-77
2022/08/16 06:00:43;;;;;;;10.20;9.90;;;17.60;99.90;;;;;;5022961;28;20331;-80
2022/08/16 06:03:13;;;;;;;10.60;10.30;;;17.60;99.90;;;;;;5023595;28;20288;-79
2022/08/16 06:05:44;;;;;;;10.23;9.93;;;17.70;99.90;;;;;;5023252;28;20239;-80
2022/08/16 06:08:12;;;;;;;10.30;10.00;;;17.80;99.90;;;;;;5024021;28;20348;-80
2022/08/16 06:10:42;;;;;;;10.38;10.07;;;17.80;99.90;;;;;;5023642;28;20352;-79
2022/08/16 06:13:10;;;;;;;10.40;10.10;;;17.90;99.90;;;;;;5022355;28;20317;-80
2022/08/16 06:15:43;;;;;;;10.70;10.40;;;18.00;99.90;;;;;;5021656;28;20263;-79
2022/08/16 06:18:13;;;;;;;10.45;10.15;;;18.10;99.90;;;;;;5022875;28;20313;-80
2022/08/16 06:20:41;;;;;;;10.70;10.40;;;18.20;99.90;;;;;;5025811;28;20323;-79
2022/08/16 06:23:10;;;;;;;10.55;10.25;;;18.20;99.90;;;;;;5025574;28;20290;-81
2022/08/16 06:25:40;;;;;;;10.30;10.00;;;18.30;99.90;;;;;;5025351;28;20232;-80
2022/08/16 06:28:10;;;;;;;10.30;10.00;;;18.40;99.90;;;;;;5026146;28;20320;-79
2022/08/16 06:30:39;;;;;;;10.10;9.80;;;18.30;99.90;;;;;;5026083;28;20256;-79
2022/08/16 06:33:09;;;;;;;10.48;10.18;;;18.40;99.90;;;;;;5025685;28;20246;-80
2022/08/16 06:35:40;;;;;;;10.45;10.15;;;18.40;99.90;;;;;;5025633;28;20339;-80
2022/08/16 06:38:07;;;;;;;10.60;10.30;;;18.50;99.90;;;;;;5027314;28;20251;-80
2022/08/16 06:40:36;;;;;;;10.43;10.13;;;18.50;99.90;;;;;;5029650;28;20267;-80
2022/08/16 06:43:05;;;;;;;10.65;10.35;;;18.50;99.90;;;;;;5040845;28;20259;-80
2022/08/16 06:45:36;;;;;;;10.68;10.38;;;18.60;99.90;;;;;;5034902;28;20291;-81
2022/08/16 06:48:05;;;;;;;10.50;10.20;;;18.70;99.90;;;;;;5029196;28;20232;-80
2022/08/16 06:50:34;;;;;;;10.55;10.25;;;18.90;99.90;;;;;;5029436;28;20300;-80
2022/08/16 06:53:05;;;;;;;10.68;10.38;;;19.00;99.90;;;;;;5028293;28;20299;-80
2022/08/16 06:55:34;;;;;;;10.50;10.20;;;19.10;99.90;;;;;;5027416;28;20244;-80
2022/08/16 06:58:02;;;;;;;10.48;10.18;;;19.20;99.90;;;;;;5026253;28;20242;-80
2022/08/16 07:00:31;;;;;;;10.70;10.40;;;19.30;99.90;;;;;;5027084;28;20240;-79
2022/08/16 07:03:00;;;;;;;10.63;10.32;;;19.40;99.90;;;;;;5026036;28;20244;-80
2022/08/16 07:05:30;;;;;;;10.57;10.27;;;19.50;99.90;;;;;;5026765;28;20236;-80
2022/08/16 07:08:03;;;;;;;10.50;10.20;;;19.50;99.90;;;;;;5027112;28;20236;-80
2022/08/16 07:10:32;;;;;;;10.60;10.30;;;19.60;99.90;;;;;;5027212;28;20231;-79
2022/08/16 07:12:59;;;;;;;10.90;10.60;;;19.80;99.90;;;;;;5026398;28;20322;-81
2022/08/16 07:15:28;;;;;;;10.68;10.38;;;19.90;99.90;;;;;;5025411;28;20232;-79
2022/08/16 07:17:59;;;;;;;10.35;10.05;;;20.10;99.90;;;;;;5026422;28;20264;-80
2022/08/16 07:20:27;;;;;;;10.60;10.30;;;20.20;99.90;;;;;;5026263;28;20220;-80
2022/08/16 07:22:56;;;;;;;10.40;10.10;;;20.30;99.90;;;;;;5025228;28;20220;-80
2022/08/16 07:25:25;;;;;;;10.40;10.10;;;20.40;99.90;;;;;;5025372;28;20238;-80
2022/08/16 07:28:02;;;;;;;10.57;10.27;;;20.40;99.90;;;;;;5026279;28;20228;-80
2022/08/16 07:30:33;;;;;;;10.63;10.32;;;20.60;99.90;;;;;;5023951;28;20251;-79
2022/08/16 07:33:03;;;;;;;10.55;10.25;;;20.70;99.90;;;;;;5024695;28;20234;-80
2022/08/16 07:35:32;;;;;;;10.80;10.50;;;20.80;99.90;;;;;;5024750;28;20232;-80
2022/08/16 07:38:02;;;;;;;10.75;10.45;;;21.00;99.90;;;;;;5028187;28;20232;-81
2022/08/16 07:40:31;;;;;;;10.77;10.48;;;21.10;99.90;;;;;;5027787;28;20244;-80
2022/08/16 07:43:02;;;;;;;10.70;10.40;;;21.20;99.90;;;;;;5026041;28;20265;-80
2022/08/16 07:45:29;;;;;;;10.73;10.43;;;21.30;99.90;;;;;;5025910;28;20239;-79
2022/08/16 07:47:59;;;;;;;10.60;10.30;;;21.50;99.90;;;;;;5025279;28;20272;-79
2022/08/16 07:50:28;;;;;;;10.63;10.32;;;21.60;99.90;;;;;;5025021;28;20228;-79
2022/08/16 07:52:58;;;;;;;10.60;10.30;;;21.80;99.90;;;;;;5024059;28;20228;-80
2022/08/16 07:55:28;;;;;;;10.57;10.27;;;22.00;99.90;;;;;;5024998;28;20240;-79
2022/08/16 07:57:57;;;;;;;10.85;10.55;;;22.10;99.90;;;;;;5027747;28;20251;-80
2022/08/16 08:00:37;;;;;;;10.90;10.60;;;22.30;99.90;;;;;;5033782;28;20227;-80
2022/08/16 08:03:05;;;;;;;11.10;10.80;;;22.40;99.90;;;;;;5033582;28;20326;-79
2022/08/16 08:05:39;;;;;;;10.90;10.60;;;22.50;99.90;;;;;;5033898;28;20240;-79
2022/08/16 08:08:07;;;;;;;10.90;10.60;;;22.60;99.90;;;;;;5026604;28;20217;-80
2022/08/16 08:10:35;;;;;;;10.73;10.43;;;22.60;99.90;;;;;;5024956;28;20228;-80
2022/08/16 08:13:04;;;;;;;10.50;10.20;;;22.70;99.90;;;;;;5025958;28;20238;-79
2022/08/16 08:15:38;;;;;;;10.63;10.32;;;22.80;99.90;;;;;;5024255;28;20231;-80
2022/08/16 08:18:05;;;;;;;10.50;10.20;;;22.90;99.90;;;;;;5024762;28;20232;-80
2022/08/16 08:20:33;;;;;;;10.70;10.40;;;23.10;99.90;;;;;;5024223;28;20322;-79
2022/08/16 08:23:02;;;;;;;10.70;10.40;;;23.20;99.90;;;;;;5023174;28;20242;-80
2022/08/16 08:25:30;;;;;;;10.50;10.20;;;23.30;99.90;;;;;;5021731;28;20311;-79
2022/08/16 08:28:02;;;;;;;10.63;10.32;;;23.40;99.90;;;;;;5023135;28;20326;-79
2022/08/16 08:30:31;;;;;;;10.70;10.40;;;23.40;99.90;;;;;;5022373;28;20288;-80
2022/08/16 08:33:03;;;;;;;10.80;10.50;;;23.50;99.90;;;;;;5022085;28;20231;-80
2022/08/16 08:35:31;;;;;;;10.88;10.57;;;23.50;99.90;;;;;;5021843;28;20228;-80
2022/08/16 08:37:59;;;;;;;11.00;10.70;;;23.60;99.90;;;;;;5021554;28;20318;-79
2022/08/16 08:40:29;;;;;;;10.95;10.65;;;23.60;99.90;;;;;;5022258;28;20251;-80
2022/08/16 08:42:57;;;;;;;10.80;10.50;;;23.70;99.90;;;;;;5020914;28;20331;-79
2022/08/16 08:45:25;;;;;;;10.70;10.40;;;23.80;99.90;;;;;;5021277;28;20730;-78
2022/08/16 08:47:56;;;;;;;10.88;10.57;;;23.90;99.90;;;;;;5020841;28;20256;-80
2022/08/16 08:50:26;;;;;;;11.02;10.73;;;24.10;99.90;;;;;;5021059;28;20267;-79
2022/08/16 08:52:56;;;;;;;11.10;10.80;;;24.30;99.90;;;;;;5021168;28;20259;-79
2022/08/16 08:55:26;;;;;;;10.65;10.35;;;24.60;99.90;;;;;;5021628;28;20242;-79
2022/08/16 08:57:54;;;;;;;11.02;10.73;;;24.80;99.90;;;;;;5021161;28;20239;-79
2022/08/16 09:00:26;;;;;;;11.00;10.70;;;25.10;99.90;;;;;;5021076;28;20247;-79
2022/08/16 09:02:54;;;;;;;10.73;10.43;;;25.20;99.90;;;;;;5021283;28;20242;-78
2022/08/16 09:05:26;;;;;;;10.90;10.60;;;25.40;99.90;;;;;;5022118;28;20331;-78
2022/08/16 09:07:55;;;;;;;10.73;10.43;;;25.40;99.90;;;;;;5021798;28;20330;-78
2022/08/16 09:10:23;;;;;;;10.85;10.55;;;25.60;99.90;;;;;;5022424;28;20259;-79
2022/08/16 09:12:51;;;;;;;10.57;10.27;;;25.80;99.90;;;;;;5021879;28;20239;-78
2022/08/16 09:15:20;;;;;;;10.35;10.05;;;25.70;99.90;;;;;;5020608;28;20236;-78
2022/08/16 09:17:51;;;;;;;10.60;10.30;;;25.30;99.90;;;;;;5021611;28;20231;-78
2022/08/16 09:20:19;;;;;;;10.38;10.07;;;25.30;99.90;;;;;;5021960;28;20251;-78
2022/08/16 09:22:49;;;;;;;10.77;10.48;;;25.20;99.90;;;;;;5023115;28;20351;-79
2022/08/16 09:25:18;;;;;;;10.90;10.60;;;25.20;99.90;;;;;;5021785;28;20240;-80
2022/08/16 09:27:48;;;;;;;10.80;10.50;;;25.10;99.90;;;;;;5021223;28;20287;-79
2022/08/16 09:30:17;;;;;;;10.95;10.65;;;25.10;99.90;;;;;;5019903;28;20260;-79
2022/08/16 09:32:47;;;;;;;10.75;10.45;;;25.00;99.90;;;;;;5020830;28;20235;-78
2022/08/16 09:35:15;;;;;;;10.60;10.30;;;25.00;99.90;;;;;;5021364;28;20228;-78
2022/08/16 09:37:44;;;;;;;10.80;10.50;;;24.80;99.90;;;;;;5021210;28;20236;-78
2022/08/16 09:40:17;;;;;;;11.07;10.77;;;24.80;99.90;;;;;;5021705;28;20240;-78
2022/08/16 09:42:44;;;;;;;10.85;10.55;;;25.00;99.90;;;;;;5020739;28;20239;-79
2022/08/16 09:45:14;;;;;;;10.80;10.50;;;25.10;99.90;;;;;;5021931;28;20228;-79
2022/08/16 09:47:42;;;;;;;10.70;10.40;;;25.10;99.90;;;;;;5020046;28;20232;-79
2022/08/16 09:50:12;;;;;;;10.80;10.50;;;25.10;99.90;;;;;;5021216;28;20329;-79
2022/08/16 09:52:40;;;;;;;10.77;10.48;;;25.20;99.90;;;;;;5020493;28;20224;-78
2022/08/16 09:55:13;;;;;;;10.90;10.60;;;25.10;99.90;;;;;;5023675;28;20228;-79
2022/08/16 09:57:41;;;;;;;10.75;10.45;;;25.00;99.90;;;;;;5025450;28;20235;-78
2022/08/16 10:00:13;;;;;;;10.70;10.40;;;24.80;99.90;;;;;;5025276;28;20231;-78
2022/08/16 10:02:41;;;;;;;10.70;10.40;;;24.60;99.90;;;;;;5024789;28;20331;-78
2022/08/16 10:05:10;;;;;;;10.55;10.25;;;24.60;99.90;;;;;;5024791;28;20236;-79
2022/08/16 10:07:38;;;;;;;10.68;10.38;;;24.70;99.90;;;;;;5024627;28;20351;-78
2022/08/16 10:10:10;;;;;;;11.20;10.90;;;25.00;99.90;;;;;;5024078;28;20236;-78
2022/08/16 10:15:27;;;;;;;10.77;10.48;;;25.60;99.90;;;;;;5034582;28;20216;-78
2022/08/16 10:17:56;;;;;;;11.10;10.80;;;26.10;99.90;;;;;;5037723;28;20232;-79
2022/08/16 10:20:25;;;;;;;10.70;10.40;;;26.00;99.90;;;;;;5026594;28;20232;-78
2022/08/16 10:22:55;;;;;;;10.70;10.40;;;25.90;99.90;;;;;;5024947;28;20236;-80
2022/08/16 10:25:24;;;;;;;10.80;10.50;;;25.80;99.90;;;;;;5025724;28;20238;-79
2022/08/16 10:28:04;;;;;;;11.20;10.90;;;25.70;99.90;;;;;;5024380;28;20238;-79
2022/08/16 10:30:32;;;;;;;11.00;10.70;;;25.60;99.90;;;;;;5025298;28;20322;-79
2022/08/16 10:33:01;;;;;;;11.10;10.80;;;25.90;99.90;;;;;;5024057;28;20232;-79
2022/08/16 10:35:31;;;;;;;11.18;10.88;;;26.40;99.90;;;;;;5024104;28;20239;-79
2022/08/16 10:38:00;;;;;;;11.75;11.35;;;27.00;99.90;;;;;;5025013;28;20232;-79
2022/08/16 10:40:29;;;;;;;11.35;11.05;;;27.70;99.90;;;;;;5024652;28;20233;-77
2022/08/16 10:42:59;;;;;;;11.23;10.93;;;28.10;99.90;;;;;;5046065;22;20240;-83
2022/08/16 10:45:29;;;;;;;10.95;10.65;;;28.30;99.90;;;;;;5025957;28;20232;-83
2022/08/16 10:47:58;;;;;;;10.98;10.68;;;28.30;99.90;;;;;;5025365;28;20233;-84
2022/08/16 10:50:28;;;;;;;11.05;10.75;;;28.30;99.90;;;;;;5035819;28;20239;-83
2022/08/16 10:52:57;;;;;;;11.00;10.70;;;28.10;99.90;;;;;;5031804;28;20244;-84
2022/08/16 10:55:26;;;;;;;10.82;10.52;;;27.90;99.90;;;;;;5031321;28;20232;-84
2022/08/16 10:57:58;;;;;;;10.98;10.68;;;27.80;99.90;;;;;;5030053;28;20287;-83
2022/08/16 11:00:26;;;;;;;10.70;10.40;;;27.80;99.90;;;;;;5028848;28;20228;-83
2022/08/16 11:02:55;;;;;;;11.00;10.70;;;27.60;99.90;;;;;;5028032;28;20224;-83
2022/08/16 11:05:24;;;;;;;11.05;10.75;;;27.60;99.90;;;;;;5027613;28;20232;-84
2022/08/16 11:07:53;;;;;;;11.05;10.75;;;27.70;99.90;;;;;;5029132;28;20260;-83
2022/08/16 11:10:33;;;;;;;11.10;10.80;;;27.70;99.90;;;;;;5028567;28;20251;-83
2022/08/16 11:15:49;;;;;;;11.50;11.15;;;27.60;99.90;;;;;;5027887;28;20255;-84
2022/08/16 11:18:17;;;;;;;11.30;11.00;;;27.70;99.90;;;;;;5027300;28;20290;-83
2022/08/16 11:20:47;;;;;;;11.40;11.10;;;27.60;99.90;;;;;;5027289;28;20232;-83
2022/08/16 11:23:16;;;;;;;11.20;10.90;;;27.60;99.90;;;;;;5026781;28;20311;-83
2022/08/16 11:25:46;;;;;;;11.40;11.10;;;27.80;99.90;;;;;;5025002;28;20267;-84
2022/08/16 11:28:25;;;;;;;11.10;10.80;;;27.90;99.90;;;;;;5025303;28;20240;-84
2022/08/16 11:30:54;;;;;;;11.10;10.80;;;28.00;99.90;;;;;;5025005;28;20244;-82
2022/08/16 11:33:23;;;;;;;11.00;10.70;;;28.20;99.90;;;;;;5025879;28;20240;-83
2022/08/16 11:35:52;;;;;;;10.77;10.48;;;28.40;99.90;;;;;;5031681;28;20263;-82
2022/08/16 11:38:23;;;;;;;11.23;10.93;;;28.70;99.90;;;;;;5036924;28;20239;-83
2022/08/16 11:40:55;;;;;;;11.13;10.82;;;29.20;99.90;;;;;;5034270;28;20224;-83
2022/08/16 11:43:29;;;;;;;11.27;10.98;;;29.60;99.90;;;;;;5033039;28;20288;-83
2022/08/16 11:45:59;;;;;;;11.10;10.80;;;29.80;99.90;;;;;;5031004;28;20240;-84
2022/08/16 11:48:32;;;;;;;11.13;10.82;;;29.70;99.90;;;;;;5030229;28;20259;-84
2022/08/16 11:51:00;;;;;;;11.07;10.77;;;29.70;99.90;;;;;;5028608;28;20228;-84
2022/08/16 11:53:31;;;;;;;11.00;10.70;;;29.70;99.90;;;;;;5028281;28;20220;-85
2022/08/16 11:56:05;;;;;;;11.05;10.75;;;29.90;99.90;;;;;;5028859;28;21044;-83
2022/08/16 11:58:44;;;;;;;11.07;10.77;;;30.20;99.90;;;;;;5028644;28;20326;-84
2022/08/16 12:01:14;;;;;;;11.13;10.82;;;30.50;99.90;;;;;;5027435;28;20318;-83
2022/08/16 12:03:42;;;;;;;11.40;11.10;;;30.70;99.90;;;;;;5032195;28;20224;-84
2022/08/16 12:06:14;;;;;;;11.18;10.88;;;31.00;99.90;;;;;;5033846;28;20253;-84
2022/08/16 12:08:43;;;;;;;11.50;11.20;;;31.00;99.90;;;;;;5028004;28;20260;-83
2022/08/16 12:11:12;;;;;;;10.90;10.60;;;31.30;99.90;;;;;;5025546;28;20240;-83
2022/08/16 12:13:52;;;;;;;10.68;10.38;;;31.60;99.90;;;;;;5024537;28;20231;-84
2022/08/16 12:16:20;;;;;;;11.02;10.73;;;31.60;99.90;;;;;;5023710;28;20258;-83
2022/08/16 12:18:50;;;;;;;11.02;10.73;;;31.70;99.90;;;;;;5024602;28;20228;-84
2022/08/16 12:21:19;;;;;;;10.80;10.50;;;31.70;99.90;;;;;;5024080;28;20226;-84
2022/08/16 12:23:49;;;;;;;10.98;10.68;;;31.60;99.90;;;;;;5022840;28;20275;-84
2022/08/16 12:26:18;;;;;;;11.10;10.80;;;31.40;99.90;;;;;;5023952;28;20263;-82
2022/08/16 12:28:57;;;;;;;11.07;10.77;;;31.20;99.90;;;;;;5023715;28;20236;-83
2022/08/16 12:31:26;;;;;;;10.80;10.50;;;30.60;99.90;;;;;;5023363;28;20232;-83
2022/08/16 12:33:55;;;;;;;11.10;10.80;;;30.30;99.90;;;;;;5023212;28;20243;-84
2022/08/16 12:36:25;;;;;;;10.90;10.60;;;30.00;99.90;;;;;;5023223;28;20260;-84
2022/08/16 12:38:54;;;;;;;11.20;10.90;;;29.80;99.90;;;;;;5023376;28;20236;-85
2022/08/16 12:41:23;;;;;;;11.15;10.85;;;29.80;99.90;;;;;;5023214;28;20252;-84
2022/08/16 12:44:02;;;;;;;10.95;10.65;;;29.70;99.90;;;;;;5022770;28;20288;-84
2022/08/16 12:46:31;;;;;;;11.10;10.80;;;29.90;99.90;;;;;;5022229;28;20266;-83
2022/08/16 12:48:59;;;;;;;11.00;10.70;;;30.40;99.90;;;;;;5023741;28;20326;-87
2022/08/16 12:51:32;;;;;;;10.95;10.65;;;30.70;99.90;;;;;;5023587;28;20236;-84